Time;durP1;ratioP1;P1;durP2;ratioP2;P2;SDS_P1;SDS_P2;PMS_P1;PMS_P2;Temp;Humidity;BMP_temperature;BMP_pressure;BME280_temperature;BME280_humidity;BME280_pressure;Samples;Min_cycle;Max_cycle;Signal;HPM_P1;HPM_P2
2022/05/20 00:00:17;;;;;;;4.80;4.40;;;;;;;16.51;100.00;96958.94;5073036;28;20462;-76
2022/05/20 00:02:46;;;;;;;6.20;4.00;;;;;;;16.26;100.00;96925.59;5086129;28;20464;-76
2022/05/20 00:05:13;;;;;;;5.27;4.53;;;;;;;16.42;100.00;96923.63;5090675;28;21014;-76
2022/05/20 00:07:40;;;;;;;3.83;3.57;;;;;;;16.40;100.00;96930.44;5074609;28;20472;-76
2022/05/20 00:10:10;;;;;;;6.00;5.40;;;;;;;16.33;100.00;96927.66;5080223;28;20428;-76
2022/05/20 00:12:37;;;;;;;10.47;4.60;;;;;;;16.45;100.00;96938.97;5067008;28;20468;-76
2022/05/20 00:15:09;;;;;;;4.80;4.40;;;;;;;16.60;100.00;96953.41;5067354;28;20532;-77
2022/05/20 00:17:36;;;;;;;5.73;4.70;;;;;;;16.37;100.00;96944.50;5076309;28;20526;-76
2022/05/20 00:20:04;;;;;;;5.50;4.50;;;;;;;16.30;100.00;96950.47;5062868;28;21067;-76
2022/05/20 00:22:31;;;;;;;5.90;5.17;;;;;;;16.17;100.00;96951.69;5070453;28;20497;-76
2022/05/20 00:27:43;;;;;;;5.70;4.67;;;;;;;15.93;100.00;96958.00;5050557;28;20461;-77
2022/05/20 00:30:11;;;;;;;6.33;4.67;;;;;;;16.03;100.00;96962.81;5064602;28;20490;-77
2022/05/20 00:32:38;;;;;;;6.70;4.67;;;;;;;15.77;100.00;96923.34;5077831;28;20471;-76
2022/05/20 00:35:05;;;;;;;5.80;4.90;;;;;;;15.74;100.00;96948.00;5060309;28;20476;-77
2022/05/20 00:37:31;;;;;;;5.00;4.50;;;;;;;15.28;100.00;96917.50;5073752;28;20802;-77
2022/05/20 00:39:59;;;;;;;5.83;5.37;;;;;;;15.63;100.00;96944.31;5089955;28;20501;-76
2022/05/20 00:42:26;;;;;;;7.27;5.27;;;;;;;15.64;100.00;96956.53;5078820;28;20499;-76
2022/05/20 00:44:53;;;;;;;8.70;5.57;;;;;;;15.57;100.00;96954.41;5074894;28;20447;-76
2022/05/20 00:47:19;;;;;;;5.73;5.13;;;;;;;15.70;100.00;96962.38;5079751;28;20431;-77
2022/05/20 00:49:52;;;;;;;5.30;4.60;;;;;;;15.76;100.00;96963.66;5059025;28;20941;-77
2022/05/20 00:52:22;;;;;;;5.30;4.80;;;;;;;15.82;100.00;96968.41;5080133;28;20474;-77
2022/05/20 00:54:55;;;;;;;5.07;4.57;;;;;;;15.51;100.00;96939.81;5070038;28;20460;-76
2022/05/20 00:57:27;;;;;;;6.10;4.77;;;;;;;15.60;100.00;96959.09;5053603;28;21262;-76
2022/05/20 00:59:59;;;;;;;6.47;5.87;;;;;;;15.61;100.00;96963.31;5069746;28;20473;-76
2022/05/20 01:02:30;;;;;;;5.30;4.60;;;;;;;15.71;100.00;96953.25;5053064;28;20539;-76
2022/05/20 01:05:00;;;;;;;5.80;5.30;;;;;;;15.92;100.00;96975.13;5063655;28;20438;-76
2022/05/20 01:07:29;;;;;;;6.07;5.40;;;;;;;15.65;100.00;96932.19;5077938;28;20535;-76
2022/05/20 01:09:56;;;;;;;8.40;5.47;;;;;;;15.85;100.00;96957.03;5083306;28;20932;-76
2022/05/20 01:12:26;;;;;;;13.03;5.83;;;;;;;15.65;100.00;96932.19;5083193;28;20818;-76
2022/05/20 01:14:53;;;;;;;5.57;5.17;;;;;;;15.73;100.00;96946.47;5079749;28;20420;-76
2022/05/20 01:17:21;;;;;;;6.00;5.40;;;;;;;15.85;100.00;96966.94;5076271;28;20468;-76
2022/05/20 01:19:53;;;;;;;5.50;5.10;;;;;;;15.69;100.00;96937.59;5082026;28;20813;-76
2022/05/20 01:22:45;;;;;;;8.03;6.40;;;;;;;15.81;100.00;96980.19;5083265;28;20467;-76
2022/05/20 01:25:12;;;;;;;6.80;5.80;;;;;;;15.48;100.00;96948.47;5083302;28;20786;-76
2022/05/20 01:27:42;;;;;;;6.80;6.20;;;;;;;15.49;100.00;96958.03;5066032;28;20531;-77
2022/05/20 01:30:12;;;;;;;7.23;6.40;;;;;;;15.61;100.00;96973.97;5087409;28;20397;-76
2022/05/20 01:32:39;;;;;;;6.00;5.50;;;;;;;15.29;100.00;96943.03;5061549;28;20556;-77
2022/05/20 01:35:11;;;;;;;6.57;5.97;;;;;;;15.61;100.00;96995.28;5065716;28;20531;-76
2022/05/20 01:37:38;;;;;;;5.97;5.47;;;;;;;14.94;100.00;96935.63;5084496;28;20448;-76
2022/05/20 01:40:07;;;;;;;8.60;5.33;;;;;;;15.14;100.00;96954.44;5092596;28;20459;-76
2022/05/20 01:42:44;;;;;;;8.70;5.90;;;;;;;15.14;100.00;96944.56;5092442;28;20535;-75
2022/05/20 01:45:17;;;;;;;6.50;5.90;;;;;;;15.19;100.00;96962.94;5097803;28;20504;-76
2022/05/20 01:47:55;;;;;;;6.77;6.17;;;;;;;15.18;100.00;96952.63;5085325;28;21004;-75
2022/05/20 01:50:47;;;;;;;7.90;6.63;;;;;;;15.20;100.00;96979.69;5093516;28;20419;-76
2022/05/20 01:53:25;;;;;;;6.57;6.00;;;;;;;15.13;100.00;96940.34;5088437;28;20453;-75
2022/05/20 01:56:03;;;;;;;6.83;6.33;;;;;;;15.41;100.00;96969.63;5110620;28;20431;-75
2022/05/20 01:58:59;;;;;;;6.87;6.27;;;;;;;15.31;100.00;96960.22;5083416;28;20420;-75
2022/05/20 02:01:32;;;;;;;7.00;5.80;;;;;;;15.30;100.00;96963.22;5068195;28;20481;-75
2022/05/20 02:04:12;;;;;;;8.13;7.33;;;;;;;15.16;100.00;96955.63;5097339;28;20424;-76
2022/05/20 02:06:45;;;;;;;8.03;6.63;;;;;;;15.00;100.00;96918.31;5067997;28;20472;-77
2022/05/20 02:09:20;;;;;;;6.67;6.07;;;;;;;14.97;100.00;96916.34;5057967;28;20499;-77
2022/05/20 02:11:50;;;;;;;7.37;6.87;;;;;;;15.30;100.00;96965.91;5093501;28;20867;-76
2022/05/20 02:14:40;;;;;;;7.87;7.17;;;;;;;14.87;100.00;96905.38;5055496;28;20472;-76
2022/05/20 02:17:19;;;;;;;7.60;7.00;;;;;;;15.20;100.00;96969.03;5097127;28;20939;-76
2022/05/20 02:20:00;;;;;;;7.00;6.50;;;;;;;15.31;100.00;96973.53;5083200;28;20454;-76
2022/05/20 02:22:34;;;;;;;8.07;7.27;;;;;;;14.94;100.00;96934.84;5080549;28;20451;-76
2022/05/20 02:25:05;;;;;;;7.43;6.83;;;;;;;15.19;100.00;96968.28;5080230;28;20443;-76
2022/05/20 02:27:40;;;;;;;7.83;7.03;;;;;;;15.33;100.00;96973.22;5072502;28;20634;-76
2022/05/20 02:30:10;;;;;;;7.50;6.70;;;;;;;14.97;100.00;96948.28;5085802;28;20477;-76
2022/05/20 02:32:54;;;;;;;9.27;7.37;;;;;;;14.88;100.00;96974.28;5072259;28;21007;-76
2022/05/20 02:35:21;;;;;;;8.47;7.57;;;;;;;14.97;100.00;96971.50;5073818;28;20988;-76
2022/05/20 02:37:47;;;;;;;7.93;7.23;;;;;;;14.53;100.00;96957.28;5072197;28;20515;-76
2022/05/20 02:40:17;;;;;;;8.90;8.00;;;;;;;14.61;100.00;96975.78;5085763;28;20561;-77
2022/05/20 02:42:44;;;;;;;9.33;8.53;;;;;;;14.63;100.00;96986.09;5085505;28;20522;-76
2022/05/20 02:45:12;;;;;;;8.40;7.60;;;;;;;14.74;100.00;96984.53;5073404;28;20444;-76
2022/05/20 02:47:39;;;;;;;8.00;7.30;;;;;;;14.63;100.00;96970.91;5084275;28;20870;-76
2022/05/20 02:50:11;;;;;;;9.13;8.20;;;;;;;14.65;100.00;96992.63;5078460;28;20475;-76
2022/05/20 02:52:37;;;;;;;7.33;6.63;;;;;;;14.68;100.00;96991.19;5062553;28;20978;-77
2022/05/20 02:55:06;;;;;;;9.00;7.50;;;;;;;14.58;100.00;96979.13;5087306;28;21035;-77
2022/05/20 02:57:33;;;;;;;8.07;7.47;;;;;;;14.53;100.00;96957.28;5085332;28;21026;-77
2022/05/20 03:05:31;;;;;;;10.30;7.77;;;;;;;14.37;100.00;96952.63;5084116;28;20541;-77
2022/05/20 03:07:59;;;;;;;13.43;10.13;;;;;;;14.36;100.00;96966.25;5072996;28;20478;-77
2022/05/20 03:10:26;;;;;;;12.63;11.13;;;;;;;14.24;100.00;96961.72;5084735;28;20444;-76
2022/05/20 03:13:01;;;;;;;11.47;10.27;;;;;;;14.22;100.00;96955.97;5086304;28;20547;-76
2022/05/20 03:15:27;;;;;;;11.30;10.10;;;;;;;14.29;100.00;96958.06;5086505;28;20456;-76
2022/05/20 03:17:54;;;;;;;10.50;9.40;;;;;;;14.45;100.00;96994.34;5088363;28;20464;-77
2022/05/20 03:20:22;;;;;;;11.00;9.83;;;;;;;14.60;100.00;96995.53;5085519;28;20510;-76
2022/05/20 03:22:49;;;;;;;10.70;9.50;;;;;;;14.59;100.00;96975.34;5078817;28;20439;-76
2022/05/20 03:25:16;;;;;;;10.53;9.43;;;;;;;14.42;100.00;96943.63;5078987;28;20510;-76
2022/05/20 03:27:42;;;;;;;10.83;9.80;;;;;;;14.29;100.00;96926.94;5051322;28;20893;-76
2022/05/20 03:30:11;;;;;;;12.03;9.47;;;;;;;14.57;100.00;96969.59;5053022;28;20429;-76
2022/05/20 03:32:38;;;;;;;9.83;8.93;;;;;;;14.53;100.00;96962.59;5063640;28;20545;-77
2022/05/20 03:35:06;;;;;;;7.83;7.13;;;;;;;14.71;100.00;96995.84;5084582;28;20426;-77
2022/05/20 03:37:33;;;;;;;10.17;9.17;;;;;;;14.84;100.00;97000.03;5077427;28;20468;-77
2022/05/20 03:40:03;;;;;;;10.60;9.60;;;;;;;14.62;100.00;96982.66;5090407;28;20428;-77
2022/05/20 03:42:29;;;;;;;13.70;9.93;;;;;;;14.55;100.00;96976.34;5085912;28;20486;-77
2022/05/20 03:44:56;;;;;;;11.93;9.03;;;;;;;14.19;100.00;96941.44;5079329;28;20443;-77
2022/05/20 03:47:23;;;;;;;9.80;8.83;;;;;;;14.81;100.00;97010.56;5075147;28;20860;-77
2022/05/20 03:49:49;;;;;;;11.43;10.33;;;;;;;14.53;100.00;96984.66;5075383;28;20482;-77
2022/05/20 03:52:17;;;;;;;9.43;8.47;;;;;;;14.43;100.00;96959.28;5085194;28;20459;-77
2022/05/20 03:54:44;;;;;;;10.63;9.50;;;;;;;14.16;100.00;96931.50;5081579;28;20791;-77
2022/05/20 03:57:12;;;;;;;9.60;8.70;;;;;;;14.40;100.00;96986.53;5056060;28;20437;-78
2022/05/20 03:59:39;;;;;;;10.03;9.10;;;;;;;14.39;100.00;97019.56;5093150;28;20462;-77
2022/05/20 04:02:12;;;;;;;12.30;9.40;;;;;;;14.43;100.00;97025.03;5059797;28;20473;-77
2022/05/20 04:04:45;;;;;;;8.87;7.93;;;;;;;14.33;100.00;97020.13;5092815;28;20935;-77
2022/05/20 04:07:30;;;;;;;16.40;9.93;;;;;;;14.04;100.00;96989.22;5088009;28;20832;-77
2022/05/20 04:09:57;;;;;;;10.13;9.17;;;;;;;14.24;100.00;97014.91;5064499;28;20444;-77
2022/05/20 04:12:28;;;;;;;12.70;10.87;;;;;;;14.47;100.00;97034.69;5075652;28;20496;-77
2022/05/20 04:14:56;;;;;;;13.00;10.43;;;;;;;14.00;100.00;96969.69;5084366;28;20441;-77
2022/05/20 04:17:23;;;;;;;11.20;9.40;;;;;;;14.28;100.00;96999.06;5095314;28;20447;-77
2022/05/20 04:20:00;;;;;;;11.13;10.13;;;;;;;14.39;100.00;96997.50;5095304;28;20982;-77
2022/05/20 04:22:30;;;;;;;11.93;10.73;;;;;;;14.40;100.00;97007.81;5090568;28;20514;-77
2022/05/20 04:24:56;;;;;;;10.70;9.10;;;;;;;14.52;100.00;97016.94;5075036;28;20452;-76
2022/05/20 04:27:23;;;;;;;10.63;9.30;;;;;;;14.40;100.00;96983.88;5058828;28;20809;-76
2022/05/20 04:29:50;;;;;;;8.83;8.13;;;;;;;14.10;100.00;96979.91;5078484;28;20421;-76
2022/05/20 04:32:17;;;;;;;10.10;9.30;;;;;;;14.28;100.00;97021.13;5070083;28;20447;-76
2022/05/20 04:34:43;;;;;;;9.93;8.97;;;;;;;14.33;100.00;97001.53;5082186;28;20462;-75
2022/05/20 04:37:10;;;;;;;10.43;9.63;;;;;;;14.32;100.00;96997.31;5084802;28;20432;-75
2022/05/20 04:39:37;;;;;;;9.40;8.70;;;;;;;14.17;100.00;96988.88;5082632;28;20485;-76
2022/05/20 04:47:35;;;;;;;9.83;8.80;;;;;;;14.71;100.00;96991.31;5078824;28;20522;-75
2022/05/20 04:50:05;;;;;;;10.70;9.80;;;;;;;14.83;100.00;97017.13;5083330;28;21028;-75
2022/05/20 04:52:32;;;;;;;10.43;8.50;;;;;;;14.96;100.00;97025.88;5083497;28;20439;-76
2022/05/20 04:54:59;;;;;;;8.67;8.07;;;;;;;15.25;100.00;97024.78;5076432;28;20440;-76
2022/05/20 04:57:48;;;;;;;10.00;9.13;;;;;;;15.34;100.00;97028.81;5060756;28;20446;-76
2022/05/20 05:00:25;;;;;;;9.33;8.63;;;;;;;15.48;100.00;97033.75;5083692;28;20439;-76
2022/05/20 05:02:53;;;;;;;9.33;8.60;;;;;;;15.52;100.00;97047.97;5073200;28;20497;-76
2022/05/20 05:05:24;;;;;;;9.87;9.07;;;;;;;15.33;100.00;97016.63;5079760;28;20425;-75
2022/05/20 05:07:52;;;;;;;10.57;9.70;;;;;;;15.73;100.00;97045.13;5074007;28;20457;-76
2022/05/20 05:10:23;;;;;;;10.60;9.50;;;;;;;15.76;100.00;97048.97;5079128;28;20475;-76
2022/05/20 05:12:50;;;;;;;10.83;9.80;;;;;;;15.87;100.00;97047.38;5069709;28;20498;-76
2022/05/20 05:15:17;;;;;;;11.00;10.00;;;;;;;15.88;100.00;97055.03;5069590;28;20483;-76
2022/05/20 05:20:32;;;;;;;12.20;11.20;;;;;;;15.79;100.00;97051.00;5083029;28;20553;-76
2022/05/20 05:23:00;;;;;;;11.57;10.67;;;;;;;15.64;100.00;97007.97;5069558;28;20488;-76
2022/05/20 05:25:29;;;;;;;10.47;9.50;;;;;;;15.76;100.00;97019.66;5069451;28;20441;-76
2022/05/20 05:27:56;;;;;;;12.90;10.63;;;;;;;15.86;100.00;97024.50;5052785;28;20878;-76
2022/05/20 05:30:23;;;;;;;10.87;9.87;;;;;;;15.93;100.00;97014.00;5069338;28;20497;-76
2022/05/20 05:32:50;;;;;;;10.47;9.60;;;;;;;15.88;100.00;96969.69;5071202;28;20894;-76
2022/05/20 05:35:20;;;;;;;12.60;11.40;;;;;;;16.10;100.00;97012.88;5074505;28;20424;-76
2022/05/20 05:37:47;;;;;;;11.17;10.17;;;;;;;15.95;100.00;97004.53;5053612;28;20468;-76
2022/05/20 05:40:17;;;;;;;11.53;10.50;;;;;;;16.13;100.00;97030.88;5071436;28;20958;-76
2022/05/20 05:42:45;;;;;;;11.70;10.70;;;;;;;16.24;100.00;97031.91;5072975;28;20508;-76
2022/05/20 05:45:16;;;;;;;10.43;9.63;;;;;;;16.57;100.00;97030.75;5077133;28;20804;-76
2022/05/20 05:47:43;;;;;;;9.67;8.77;;;;;;;16.58;100.00;96992.25;5094609;28;20455;-76
2022/05/20 05:50:10;;;;;;;9.37;8.57;;;;;;;16.59;100.00;96989.25;5057649;28;20460;-76
2022/05/20 05:52:37;;;;;;;10.20;9.20;;;;;;;16.60;100.00;96964.09;5074206;28;20445;-76
2022/05/20 05:55:07;;;;;;;10.07;9.07;;;;;;;17.12;100.00;96989.59;5073152;28;20523;-76
2022/05/20 05:57:34;;;;;;;8.87;8.07;;;;;;;17.02;100.00;96980.25;5074146;28;20470;-76
2022/05/20 06:00:03;;;;;;;10.43;9.53;;;;;;;17.37;100.00;96984.72;5072668;28;20436;-76
2022/05/20 06:02:37;;;;;;;10.40;9.60;;;;;;;17.37;100.00;96980.16;5067515;28;20573;-76
2022/05/20 06:05:05;;;;;;;10.03;9.23;;;;;;;17.43;100.00;96968.03;5072668;28;20455;-76
2022/05/20 06:07:31;;;;;;;11.03;10.00;;;;;;;17.28;100.00;96979.59;5076788;28;20439;-76
2022/05/20 06:09:59;;;;;;;10.37;9.47;;;;;;;17.62;100.00;96983.25;5072449;28;20432;-76
2022/05/20 06:12:25;;;;;;;10.20;9.30;;;;;;;17.49;100.00;96992.56;5073679;28;20460;-76
2022/05/20 06:14:52;;;;;;;10.43;9.50;;;;;;;17.73;100.00;97020.94;5081296;28;20515;-76
2022/05/20 06:17:19;;;;;;;12.33;8.53;;;;;;;17.68;100.00;96973.84;5076807;28;20494;-76
2022/05/20 06:19:45;;;;;;;11.60;10.43;;;;;;;17.95;100.00;96955.94;5072675;28;20475;-76
2022/05/20 06:22:12;;;;;;;9.27;8.57;;;;;;;18.04;100.00;96971.78;5072189;28;20456;-76
2022/05/20 06:24:39;;;;;;;11.17;9.70;;;;;;;18.57;100.00;97022.69;5072712;28;20433;-76
2022/05/20 06:27:06;;;;;;;9.40;8.37;;;;;;;18.77;100.00;97026.81;5072269;28;20441;-76
2022/05/20 06:29:32;;;;;;;9.60;8.80;;;;;;;18.63;100.00;96985.63;5072594;28;20420;-76
2022/05/20 06:31:59;;;;;;;9.40;8.50;;;;;;;18.85;100.00;96971.41;5072085;28;20582;-77
2022/05/20 06:34:26;;;;;;;9.73;8.93;;;;;;;19.21;100.00;97004.75;5072267;28;20433;-76
2022/05/20 06:39:49;;;;;;;8.83;8.10;;;;;;;19.17;100.00;96972.56;5077529;28;20424;-78
2022/05/20 06:42:19;;;;;;;9.40;8.53;;;;;;;18.06;100.00;96899.91;5076107;28;20479;-78
2022/05/20 06:44:45;;;;;;;10.03;9.07;;;;;;;18.99;100.00;96979.63;5060137;28;20431;-78
2022/05/20 06:47:13;;;;;;;8.17;7.57;;;;;;;19.57;100.00;96997.91;5085306;28;20424;-78
2022/05/20 06:49:40;;;;;;;9.60;8.80;;;;;;;19.72;100.00;96977.34;5097236;28;20530;-78
2022/05/20 06:52:06;;;;;;;7.50;6.90;;;;;;;19.86;100.00;96982.06;5094102;28;20531;-78
2022/05/20 06:54:53;;;;;;;9.27;8.37;;;;;;;20.16;100.00;96977.31;5077177;28;20474;-78
2022/05/20 06:57:24;;;;;;;8.00;7.40;;;;;;;20.53;100.00;97003.31;5078932;28;20493;-78
2022/05/20 06:59:52;;;;;;;8.30;7.70;;;;;;;20.93;100.00;97005.84;5060514;28;20523;-78
2022/05/20 07:02:19;;;;;;;9.67;7.63;;;;;;;20.98;100.00;96979.78;5077956;28;20532;-78
2022/05/20 07:04:49;;;;;;;9.63;7.90;;;;;;;21.39;100.00;96997.25;5093705;28;20959;-78
2022/05/20 07:07:16;;;;;;;8.50;7.73;;;;;;;21.26;100.00;96981.84;5082039;28;20427;-78
2022/05/20 07:09:42;;;;;;;8.93;8.13;;;;;;;21.44;100.00;97014.94;5076989;28;20474;-78
2022/05/20 07:12:10;;;;;;;8.20;7.50;;;;;;;21.33;100.00;96968.38;5076484;28;21055;-78
2022/05/20 07:14:36;;;;;;;7.70;7.07;;;;;;;21.38;100.00;96992.25;5060181;28;20463;-78
2022/05/20 07:17:03;;;;;;;8.40;7.40;;;;;;;21.32;100.00;96951.47;5060515;28;20467;-78
2022/05/20 07:19:30;;;;;;;8.63;7.93;;;;;;;21.32;100.00;96981.06;5081658;28;20558;-78
2022/05/20 07:21:57;;;;;;;9.30;8.33;;;;;;;20.86;100.00;96962.06;5079466;28;20583;-78
2022/05/20 07:24:24;;;;;;;7.70;7.10;;;;;;;21.37;100.00;97009.50;5091700;28;20870;-78
2022/05/20 07:26:50;;;;;;;8.10;7.40;;;;;;;21.33;100.00;96997.97;5076713;28;20437;-78
2022/05/20 07:29:17;;;;;;;8.77;8.07;;;;;;;21.27;100.00;97010.28;5076064;28;20468;-78
2022/05/20 07:31:43;;;;;;;9.40;8.47;;;;;;;21.34;100.00;97012.97;5076127;28;20512;-78
2022/05/20 07:34:12;;;;;;;9.27;8.13;;;;;;;21.38;100.00;97008.41;5076000;28;20436;-78
2022/05/20 07:36:38;;;;;;;9.03;8.17;;;;;;;20.91;100.00;96954.38;5076249;28;20463;-78
2022/05/20 07:39:07;;;;;;;8.30;7.60;;;;;;;21.35;100.00;96992.97;5076067;28;20858;-78
2022/05/20 07:41:35;;;;;;;8.97;8.17;;;;;;;21.85;100.00;96983.09;5075796;28;20547;-78
2022/05/20 07:44:02;;;;;;;9.27;8.47;;;;;;;22.09;100.00;96978.91;5080323;28;20432;-78
2022/05/20 07:46:29;;;;;;;10.00;9.10;;;;;;;21.82;100.00;96978.47;5079151;28;20534;-78
2022/05/20 07:48:56;;;;;;;8.30;7.50;;;;;;;21.46;100.00;96929.19;5093062;28;20463;-78
2022/05/20 07:51:24;;;;;;;9.60;8.67;;;;;;;22.01;100.00;96985.41;5076849;28;20456;-78
2022/05/20 07:53:56;;;;;;;7.87;7.20;;;;;;;22.35;100.00;97000.06;5079353;28;20447;-78
2022/05/20 07:56:37;;;;;;;13.70;8.10;;;;;;;22.26;100.00;96993.50;5080109;28;20472;-78
2022/05/20 07:59:12;;;;;;;7.90;7.30;;;;;;;21.71;100.00;96973.06;5075757;28;20433;-78
2022/05/20 08:01:47;;;;;;;8.50;7.90;;;;;;;22.16;100.00;96988.88;5065178;28;20529;-78
2022/05/20 08:07:28;;;;;;;8.73;8.00;;;;;;;21.77;100.00;96976.94;5079504;28;20432;-78
2022/05/20 08:09:55;;;;;;;7.93;6.67;;;;;;;22.40;100.00;96986.19;5075737;28;20447;-79
2022/05/20 08:12:22;;;;;;;7.50;6.80;;;;;;;22.24;100.00;96958.88;5071479;28;20463;-78
2022/05/20 08:14:49;;;;;;;7.73;7.07;;;;;;;22.20;100.00;96986.97;5075133;28;20902;-79
2022/05/20 08:17:20;;;;;;;8.07;7.40;;;;;;;22.15;100.00;96987.34;5058879;28;20452;-78
2022/05/20 08:19:47;;;;;;;8.03;7.27;;;;;;;22.18;100.00;96971.22;5083777;28;20497;-78
2022/05/20 08:22:16;;;;;;;7.80;7.13;;;;;;;22.21;100.00;96946.19;5079410;28;20472;-78
2022/05/20 08:24:43;;;;;;;6.97;6.33;;;;;;;22.29;100.00;96973.88;5074659;28;20449;-79
2022/05/20 08:27:10;;;;;;;7.77;7.23;;;;;;;22.15;100.00;96961.19;5090200;28;20434;-79
2022/05/20 08:29:37;;;;;;;8.23;7.53;;;;;;;22.31;100.00;96953.50;5092234;28;20444;-79
2022/05/20 08:32:03;;;;;;;7.70;7.03;;;;;;;22.62;100.00;96983.47;5077597;28;20459;-78
2022/05/20 08:34:30;;;;;;;10.13;8.90;;;;;;;22.53;100.00;96961.53;5084335;28;20470;-79
2022/05/20 08:37:02;;;;;;;7.73;7.10;;;;;;;22.79;100.00;96974.53;5090789;28;20449;-78
2022/05/20 08:39:29;;;;;;;6.63;5.93;;;;;;;23.14;100.00;96970.97;5074392;28;20464;-78
2022/05/20 08:41:57;;;;;;;7.77;6.77;;;;;;;23.15;100.00;96947.47;5076003;28;20535;-79
2022/05/20 08:44:24;;;;;;;7.53;6.93;;;;;;;23.63;100.00;96963.00;5074837;28;20437;-79
2022/05/20 08:47:20;;;;;;;7.90;6.63;;;;;;;23.65;100.00;96966.09;5074537;28;20444;-79
2022/05/20 08:49:51;;;;;;;9.23;8.43;;;;;;;23.06;100.00;96910.13;5056794;28;20559;-78
2022/05/20 08:52:19;;;;;;;7.83;7.13;;;;;;;23.74;100.00;96963.72;5074430;28;20453;-78
2022/05/20 08:54:46;;;;;;;7.93;6.73;;;;;;;23.70;100.00;96960.28;5058462;28;20433;-79
2022/05/20 08:57:33;;;;;;;7.63;7.03;;;;;;;23.91;100.00;96970.16;5088233;28;20431;-79
2022/05/20 09:00:05;;;;;;;10.17;7.40;;;;;;;24.23;100.00;96962.56;5077063;28;20944;-79
2022/05/20 09:02:32;;;;;;;7.67;6.87;;;;;;;24.70;100.00;96981.81;5089181;28;20456;-79
2022/05/20 09:04:59;;;;;;;7.47;6.90;;;;;;;24.82;100.00;96977.81;5075766;28;20463;-79
2022/05/20 09:07:26;;;;;;;7.77;7.20;;;;;;;24.76;100.00;96962.03;5076796;28;20468;-78
2022/05/20 09:09:56;;;;;;;7.93;7.23;;;;;;;24.88;100.00;96927.53;5097037;28;21015;-79
2022/05/20 09:12:37;;;;;;;8.07;7.37;;;;;;;25.06;100.00;96960.56;5063238;28;20499;-79
2022/05/20 09:18:07;;;;;;;6.93;6.37;;;;;;;25.29;100.00;96965.31;5100030;28;20428;-79
2022/05/20 09:20:42;;;;;;;7.77;6.97;;;;;;;25.45;100.00;96979.00;5100783;28;20427;-79
2022/05/20 09:23:10;;;;;;;8.13;7.43;;;;;;;25.23;100.00;96904.66;5079593;28;20828;-79
2022/05/20 09:25:46;;;;;;;7.10;6.50;;;;;;;25.25;100.00;96919.34;5084165;28;20506;-79
2022/05/20 09:28:16;;;;;;;8.67;7.83;;;;;;;25.48;100.00;96967.34;5099557;28;20443;-79
2022/05/20 09:30:49;;;;;;;7.80;7.20;;;;;;;24.63;100.00;96960.25;5099304;28;20443;-79
2022/05/20 09:33:20;;;;;;;11.17;7.93;;;;;;;24.47;100.00;96939.19;5101442;28;20524;-79
2022/05/20 09:35:57;;;;;;;7.90;7.20;;;;;;;24.29;100.00;96925.78;5093737;28;20515;-79
2022/05/20 09:38:42;;;;;;;8.77;7.40;;;;;;;24.76;100.00;96940.41;5096422;28;20427;-79
2022/05/20 09:41:21;;;;;;;8.00;7.27;;;;;;;23.58;100.00;96900.16;5080380;28;20472;-79
2022/05/20 09:43:59;;;;;;;10.13;6.93;;;;;;;23.98;100.00;96943.09;5079682;28;20878;-79
2022/05/20 09:46:48;;;;;;;8.70;7.60;;;;;;;23.94;100.00;96931.53;5077533;28;20435;-79
2022/05/20 09:49:48;;;;;;;6.73;6.23;;;;;;;23.78;100.00;96940.94;5083312;28;20439;-79
2022/05/20 09:52:20;;;;;;;12.60;8.37;;;;;;;23.62;100.00;96907.47;5099814;28;20525;-79
2022/05/20 09:54:55;;;;;;;9.27;8.40;;;;;;;23.86;100.00;96934.28;5100788;28;20428;-78
2022/05/20 09:57:28;;;;;;;8.40;7.60;;;;;;;23.59;100.00;96873.94;5101003;28;20419;-79
2022/05/20 10:00:07;;;;;;;9.33;8.33;;;;;;;24.16;100.00;96930.94;5081845;28;20751;-79
2022/05/20 10:02:55;;;;;;;9.23;8.40;;;;;;;23.99;100.00;96898.69;5073889;28;20582;-79
2022/05/20 10:05:57;;;;;;;9.30;8.40;;;;;;;24.46;100.00;96921.44;5078696;28;20512;-79
2022/05/20 10:08:27;;;;;;;9.30;8.50;;;;;;;24.97;100.00;96922.34;5062624;28;20451;-79
2022/05/20 10:11:06;;;;;;;9.43;8.70;;;;;;;25.00;100.00;96919.66;5079890;28;20456;-80
2022/05/20 10:13:53;;;;;;;9.57;8.70;;;;;;;24.72;100.00;96904.53;5080367;28;20519;-79
2022/05/20 10:16:31;;;;;;;9.13;8.33;;;;;;;24.30;100.00;96848.19;5081761;28;20424;-79
2022/05/20 10:19:12;;;;;;;8.27;7.43;;;;;;;24.67;100.00;96885.25;5083420;28;20429;-79
2022/05/20 10:21:58;;;;;;;8.47;7.87;;;;;;;24.50;100.00;96883.53;5102559;28;20502;-79
2022/05/20 10:24:46;;;;;;;9.03;8.23;;;;;;;24.88;100.00;96897.75;5076388;28;20451;-79
2022/05/20 10:27:37;;;;;;;8.57;7.87;;;;;;;25.17;100.00;96898.16;5064912;28;20445;-79
2022/05/20 10:33:13;;;;;;;8.70;7.97;;;;;;;25.11;100.00;96878.13;5082744;28;20586;-79
2022/05/20 10:36:11;;;;;;;12.87;9.53;;;;;;;25.11;100.00;96878.13;5051286;28;20439;-79
2022/05/20 10:39:04;;;;;;;10.97;10.03;;;;;;;25.66;100.00;96879.66;5081337;28;20518;-79
2022/05/20 10:41:58;;;;;;;8.33;7.63;;;;;;;26.42;100.00;96881.44;5081850;28;20462;-79
2022/05/20 10:51:09;;;;;;;5.50;5.17;;;;;;;26.50;89.75;96863.84;5097300;28;20555;-79
2022/05/20 10:53:45;;;;;;;9.70;6.00;;;;;;;26.63;89.37;96871.38;5088575;28;20954;-79
2022/05/20 10:56:38;;;;;;;6.80;6.23;;;;;;;26.85;87.72;96867.03;5093338;28;20471;-79
2022/05/20 10:59:36;;;;;;;8.20;6.40;;;;;;;26.86;87.23;96870.50;5076641;28;20432;-79
2022/05/20 11:02:24;;;;;;;6.53;5.83;;;;;;;26.71;88.09;96845.59;5089814;28;20502;-79
2022/05/20 11:05:27;;;;;;;7.50;5.63;;;;;;;26.01;87.65;96811.31;5076164;28;20425;-79
2022/05/20 11:08:14;;;;;;;8.17;7.33;;;;;;;26.70;85.77;96833.97;5080600;28;20529;-79
2022/05/20 11:11:02;;;;;;;10.60;6.73;;;;;;;27.02;85.09;96838.00;5096455;28;20439;-79
2022/05/20 11:13:29;;;;;;;5.83;5.30;;;;;;;27.41;85.24;96828.94;5076836;28;20425;-79
2022/05/20 11:16:22;;;;;;;7.10;6.57;;;;;;;27.42;83.83;96821.56;5095788;28;20440;-78
2022/05/20 11:18:49;;;;;;;6.50;5.83;;;;;;;27.78;81.74;96813.28;5083450;28;20882;-79
2022/05/20 11:21:22;;;;;;;7.00;6.30;;;;;;;27.85;80.99;96811.16;5079210;28;20455;-79
2022/05/20 11:24:14;;;;;;;9.83;7.10;;;;;;;27.94;82.71;96807.84;5079372;28;20487;-79
2022/05/20 11:26:46;;;;;;;8.17;6.73;;;;;;;28.19;79.66;96802.50;5084094;28;20486;-79
2022/05/20 11:29:32;;;;;;;10.67;6.50;;;;;;;28.27;77.23;96803.84;5078521;28;20916;-79
2022/05/20 11:32:09;;;;;;;7.50;6.80;;;;;;;28.58;74.96;96802.59;5093235;28;20468;-78
2022/05/20 11:34:50;;;;;;;7.93;6.17;;;;;;;28.62;75.52;96767.88;5075550;28;20466;-79
2022/05/20 11:37:38;;;;;;;6.47;5.87;;;;;;;29.11;73.64;96779.22;5076429;28;20476;-79
2022/05/20 11:40:40;;;;;;;7.57;6.67;;;;;;;29.36;73.11;96787.34;5075885;28;20532;-79
2022/05/20 11:43:19;;;;;;;6.50;5.97;;;;;;;29.40;71.13;96755.31;5058780;28;20510;-79
2022/05/20 11:46:12;;;;;;;6.87;6.37;;;;;;;29.82;73.43;96774.19;5075731;28;20439;-79
2022/05/20 11:49:09;;;;;;;9.93;6.37;;;;;;;29.34;70.30;96746.16;5075115;28;20486;-79
2022/05/20 11:51:44;;;;;;;7.30;6.80;;;;;;;29.27;72.88;96765.47;5092191;28;20967;-78
2022/05/20 11:54:20;;;;;;;7.93;6.80;;;;;;;28.83;71.92;96740.75;5083591;28;20460;-79
2022/05/20 11:56:58;;;;;;;7.57;6.97;;;;;;;28.79;73.10;96759.16;5091987;28;20539;-79
2022/05/20 11:59:38;;;;;;;7.70;6.97;;;;;;;29.05;74.66;96761.91;5074731;28;20539;-78
2022/05/20 12:02:10;;;;;;;7.97;7.27;;;;;;;28.99;73.27;96728.25;5085382;28;20520;-79
2022/05/20 12:04:40;;;;;;;6.90;6.20;;;;;;;28.97;71.42;96727.91;5078333;28;20424;-78
2022/05/20 12:07:14;;;;;;;6.83;6.27;;;;;;;28.51;71.09;96683.84;5077222;28;20459;-79
2022/05/20 12:09:45;;;;;;;7.50;7.00;;;;;;;29.47;69.85;96732.53;5082113;28;20550;-78
2022/05/20 12:12:33;;;;;;;7.50;6.80;;;;;;;29.91;67.79;96740.75;5082682;28;20563;-79
2022/05/20 12:15:12;;;;;;;6.40;5.80;;;;;;;30.04;70.92;96730.53;5067224;28;20920;-79
2022/05/20 12:17:42;;;;;;;6.90;6.27;;;;;;;30.33;67.10;96735.75;5057451;28;20485;-79
2022/05/20 12:25:58;;;;;;;7.63;6.97;;;;;;;30.30;67.76;96715.53;5079668;28;20497;-78
2022/05/20 12:28:25;;;;;;;7.00;6.40;;;;;;;30.59;66.96;96719.94;5081326;28;20975;-78